• Join FlightAware (Why Join?)
  • Login
  • US Flag 
10:03AM EDT


 

Airport Tracker/Info


-or-


 

Live Flight TrackerFlight Track Log ✈ N609RL ✈ 14-May-2013 ✈ KTKI - KJYR

Flight Track Log - Related Links

Times and Time Zones

All times are in EDT time to prevent confusion due to time zone crossing. See the N609RL flight status page for this flight to view local times or setup timezone preferences in your user account.

Time Position Orientation Groundspeed Altitude Reporting Facility
EDT Latitude Longitude Course Direction KTS MPH feet Rate Location/Type
05:31PM 33.1667 -96.5833 248° West 85 98 800  Level Dallas / Fort Worth TRACON
05:33PM 33.1500 -96.6333 248° West 110 127 1,700 600 Climbing Dallas / Fort Worth TRACON
05:34PM 33.1833 -96.6667 320° Northwest 132 152 2,400 600 Climbing Dallas / Fort Worth TRACON
05:34PM 33.1883 -96.6836 289° West 129 148 2,700 420 Climbing Fort Worth Center
05:35PM 33.2133 -96.7108 318° Northwest 134 154 3,100 540 Climbing Fort Worth Center
05:36PM 33.2428 -96.7478 314° West 142 163 3,800 420 Climbing Fort Worth Center
05:37PM 33.2722 -96.7775 320° Northwest 157 181 4,000 60 Climbing Fort Worth Center
05:38PM 33.3058 -96.8169 316° Northwest 166 191 4,000  Level Fort Worth Center
05:39PM 33.3478 -96.8364 339° North 166 191 4,000  Level Fort Worth Center
05:40PM 33.3978 -96.8511 346° North 166 191 4,100 300 Climbing Fort Worth Center
05:41PM 33.4375 -96.8633 346° North 160 184 4,600 600 Climbing Fort Worth Center
05:42PM 33.4836 -96.8756 348° North 160 184 5,400 660 Climbing Fort Worth Center
05:43PM 33.5233 -96.8878 346° North 154 177 6,000 600 Climbing Fort Worth Center
05:44PM 33.5628 -96.9000 346° North 149 171 6,700 660 Climbing Fort Worth Center
05:45PM 33.6025 -96.9097 348° North 143 165 7,400 600 Climbing Fort Worth Center
05:46PM 33.6403 -96.9169 351° North 143 165 8,000 300 Climbing Fort Worth Center
05:47PM 33.6842 -96.9317 344° North 148 170 8,000  Level Fort Worth Center
05:48PM 33.7322 -96.9439 348° North 158 182 8,000  Level Fort Worth Center
05:49PM 33.7781 -96.9561 348° North 165 190 8,000  Level Fort Worth Center
05:50PM 33.8261 -96.9608 355° North 165 190 8,000  Level Fort Worth Center
05:51PM 33.8719 -96.9708 350° North 170 196 8,000  Level Fort Worth Center
05:52PM 33.9222 -96.9731 358° North 170 196 8,000  Level Fort Worth Center
05:53PM 33.9722 -96.9803 353° North 175 201 8,000  Level Fort Worth Center
05:54PM 34.0225 -96.9825 358° North 175 201 8,100  Climbing Fort Worth Center
05:55PM 34.0725 -96.9847 358° North 180 207 8,100 -60 Level Fort Worth Center
05:56PM 34.1225 -96.9894 356° North 180 207 8,000 -120 Descending Fort Worth Center
05:57PM 34.1706 -96.9967 353° North 180 207 7,900 -60 Descending Fort Worth Center
05:58PM 34.2228 -96.9992 358° North 180 207 7,900  Level Fort Worth Center
05:59PM 34.2708 -97.0039 355° North 180 207 7,900  Level Fort Worth Center
06:00PM 34.3189 -97.0086 355° North 180 207 7,900  Level Fort Worth Center
06:01PM 34.3708 -97.0133 356° North 180 207 8,000  Climbing Fort Worth Center
06:02PM 34.4231 -97.0183 355° North 180 207 8,000  Level Fort Worth Center
06:03PM 34.4775 -97.0231 356° North 180 207 8,000 -60 Level Fort Worth Center
06:04PM 34.5253 -97.0278 355° North 180 207 7,900 -60 Descending Fort Worth Center
06:05PM 34.5733 -97.0278 360° North 175 201 7,900  Level Fort Worth Center
06:06PM 34.6233 -97.0325 356° North 175 201 8,000  Climbing Fort Worth Center
06:07PM 34.6714 -97.0372 355° North 180 207 7,900 -60 Descending Fort Worth Center
06:08PM 34.7194 -97.0422 355° North 180 207 7,900  Level Fort Worth Center
06:09PM 34.7550 -97.0469 354° North 180 207 7,900  Level Fort Worth Center
06:09PM 34.7694 -97.0494 352° North 175 201 7,900 60 Level Fort Worth Center
06:10PM 34.8175 -97.0519 358° North 175 201 8,000 240 Climbing Fort Worth Center
06:11PM 34.8592 -97.0567 355° North 172 198 8,400 480 Climbing Fort Worth Center
06:12PM 34.9031 -97.0592 357° North 158 182 9,000 540 Climbing Fort Worth Center
06:13PM 34.9469 -97.0639 355° North 154 177 9,500 480 Climbing Fort Worth Center
06:14PM 34.9886 -97.0664 357° North 146 168 10,000 240 Climbing Fort Worth Center
06:15PM 35.0283 -97.0714 354° North 153 176 10,000  Level Fort Worth Center
06:16PM 35.0700 -97.0761 355° North 170 196 10,100  Climbing Fort Worth Center
06:16PM 35.0825 -97.0736 North 162 186 10,000 -120 Descending Fort Worth Center
06:17PM 35.1325 -97.0783 356° North 167 192 10,000  Level Fort Worth Center
06:18PM 35.1806 -97.0833 355° North 172 198 10,000  Level Fort Worth Center
06:19PM 35.2286 -97.0856 358° North 172 198 10,100  Climbing Fort Worth Center
06:20PM 35.2744 -97.0906 355° North 179 206 10,100  Level Fort Worth Center
06:21PM 35.3244 -97.0981 353° North 181 208 10,100 -60 Level Fort Worth Center
06:22PM 35.3828 -97.1003 358° North 178 205 10,000 -60 Descending Fort Worth Center
06:23PM 35.4289 -97.1078 352° North 179 206 10,000  Level Fort Worth Center
06:24PM 35.4767 -97.1128 355° North 177 204 10,000  Level Fort Worth Center
06:26PM 35.5883 -97.1133 360° North 180 207 10,000  Level Kansas City Center
06:27PM 35.6381 -97.1183 355° North 180 207 10,000  Level Kansas City Center
06:28PM 35.6978 -97.1250 355° North 180 207 10,000  Level Kansas City Center
06:29PM 35.7475 -97.1294 356° North 180 207 10,000  Level Kansas City Center
06:30PM 35.7967 -97.1333 356° North 179 206 10,000  Level Kansas City Center
06:31PM 35.8461 -97.1372 356° North 179 206 10,000  Level Kansas City Center
06:33PM 35.8950 -97.1431 354° North 177 204 10,000  Level Kansas City Center
06:34PM 35.9444 -97.1481 355° North 177 204 10,000  Level Kansas City Center
06:35PM 36.0047 -97.1533 356° North 180 207 10,100  Climbing Kansas City Center
06:36PM 36.0544 -97.1581 356° North 180 207 10,100 -60 Level Kansas City Center
06:37PM 36.1033 -97.1625 356° North 178 205 10,000 -60 Descending Kansas City Center
06:38PM 36.1528 -97.1675 355° North 177 204 10,000  Level Kansas City Center
06:39PM 36.2025 -97.1717 356° North 179 206 10,100  Climbing Kansas City Center
06:40PM 36.2519 -97.1756 356° North 178 205 10,100  Level Kansas City Center
06:41PM 36.3122 -97.1828 354° North 181 208 10,100  Level Kansas City Center
06:42PM 36.3611 -97.1869 356° North 178 205 10,100  Level Kansas City Center
06:43PM 36.4119 -97.1906 357° North 180 207 10,100 -60 Level Kansas City Center
06:44PM 36.4611 -97.1956 355° North 179 206 10,000  Descending Kansas City Center
06:45PM 36.5117 -97.1994 356° North 180 207 10,100  Climbing Kansas City Center
06:46PM 36.5714 -97.2061 355° North 181 208 10,100  Level Kansas City Center
06:47PM 36.6222 -97.2117 355° North 182 209 10,100  Level Kansas City Center
06:48PM 36.6714 -97.2147 357° North 180 207 10,100  Level Kansas City Center
06:49PM 36.7214 -97.2189 356° North 179 206 10,100  Level Kansas City Center
06:50PM 36.7719 -97.2247 355° North 181 208 10,100  Level Kansas City Center
06:51PM 36.8222 -97.2278 357° North 181 208 10,100  Level Kansas City Center
06:52PM 36.8775 -97.2336 355° North 182 209 10,100 -60 Level Kansas City Center
06:53PM 36.9281 -97.2386 355° North 182 209 10,000  Descending Kansas City Center
06:54PM 36.9778 -97.2433 356° North 180 207 10,100 60 Climbing Kansas City Center
06:55PM 37.0089 -97.2467 355° North 179 206 10,100  Level Kansas City Center
06:55PM 37.0269 -97.2478 357° North 178 205 10,100 -120 Level Kansas City Center
06:56PM 37.0725 -97.2525 355° North 178 205 10,000  Descending Kansas City Center
06:56PM 37.0861 -97.2539 355° North 178 205 10,100  Climbing Kansas City Center
06:57PM 37.1211 -97.2556 358° North 176 203 10,000  Descending Kansas City Center
06:57PM 37.1358 -97.2578 353° North 177 204 10,100  Climbing Kansas City Center
06:58PM 37.1700 -97.2611 356° North 175 201 10,000  Descending Kansas City Center
06:58PM 37.1842 -97.2617 358° North 177 204 10,100  Climbing Kansas City Center
06:59PM 37.2272 -97.2653 356° North 176 203 10,000  Descending Kansas City Center
06:59PM 37.2322 -97.2658 355° North 175 201 10,100  Climbing Kansas City Center
07:00PM 37.2653 -97.2672 358° North 178 205 10,000  Descending Kansas City Center
07:00PM 37.2817 -97.2692 355° North 176 203 10,100  Climbing Kansas City Center
07:01PM 37.3100 -97.2733 353° North 178 205 10,000  Descending Kansas City Center
07:01PM 37.3317 -97.2744 358° North 178 205 10,100  Climbing Kansas City Center
07:02PM 37.3608 -97.2761 357° North 179 206 10,000 -120 Descending Kansas City Center
07:02PM 37.3919 -97.2792 356° North 180 207 10,000  Level Kansas City Center
07:03PM 37.4056 -97.2822 350° North 180 207 10,000  Level Kansas City Center
07:04PM 37.4414 -97.2853 356° North 178 205 10,000  Level Kansas City Center
07:04PM 37.4586 -97.2872 355° North 177 204 10,000  Level Kansas City Center
07:05PM 37.4900 -97.2894 357° North 177 204 10,000  Level Kansas City Center
07:05PM 37.5075 -97.2928 351° North 176 203 10,000  Level Kansas City Center
07:06PM 37.5394 -97.2944 358° North 177 204 10,000  Level Kansas City Center
07:06PM 37.5606 -97.2975 353° North 176 203 10,000  Level Kansas City Center
07:07PM 37.5878 -97.2978 360° North 174 200 10,000  Level Kansas City Center
07:07PM 37.6111 -97.3003 355° North 170 196 10,000  Level Kansas City Center
07:08PM 37.6350 -97.3019 357° North 172 198 10,000  Level Kansas City Center
07:08PM 37.6664 -97.3075 352° North 170 196 10,000  Level Kansas City Center
07:09PM 37.6919 -97.3092 357° North 171 197 10,000  Level Kansas City Center
07:09PM 37.7089 -97.3114 354° North 171 197 10,000  Level Kansas City Center
07:10PM 37.7450 -97.3136 357° North 171 197 10,000  Level Kansas City Center
07:11PM 37.7864 -97.3181 355° North 170 196 10,000  Level Kansas City Center
07:12PM 37.8336 -97.3219 356° North 170 196 10,000  Level Kansas City Center
07:13PM 37.8814 -97.3253 357° North 171 197 10,000  Level Kansas City Center
07:14PM 37.9272 -97.3294 356° North 168 193 10,000  Level Kansas City Center
07:15PM 37.9844 -97.3367 354° North 172 198 10,000  Level Kansas City Center
07:16PM 38.0325 -97.3408 356° North 173 199 10,000  Level Kansas City Center
07:17PM 38.0794 -97.3469 354° North 170 196 10,000  Level Kansas City Center
07:18PM 38.1264 -97.3494 358° North 169 194 10,000  Level Kansas City Center
07:19PM 38.1739 -97.3550 355° North 172 198 10,000  Level Kansas City Center
07:20PM 38.2303 -97.3600 356° North 169 194 10,000  Level Kansas City Center
07:21PM 38.2753 -97.3647 355° North 164 189 10,100  Climbing Kansas City Center
07:22PM 38.3211 -97.3689 356° North 164 189 10,100  Level Kansas City Center
07:23PM 38.3669 -97.3733 356° North 166 191 10,100  Level Kansas City Center
07:24PM 38.4131 -97.3764 357° North 166 191 10,100  Level Kansas City Center
07:25PM 38.4653 -97.3819 355° North 165 190 10,100  Level Kansas City Center
07:26PM 38.5139 -97.3872 355° North 168 193 10,100  Level Kansas City Center
07:27PM 38.5608 -97.3908 357° North 164 189 10,100  Level Kansas City Center
07:28PM 38.6089 -97.3956 356° North 165 190 10,100  Level Kansas City Center
07:29PM 38.6578 -97.3997 356° North 169 194 10,100  Level Kansas City Center
07:30PM 38.7081 -97.4042 356° North 173 199 10,100  Level Kansas City Center
07:31PM 38.7575 -97.4100 355° North 171 197 10,100  Level Kansas City Center
07:32PM 38.8033 -97.4144 356° North 171 197 10,100  Level Kansas City Center
07:34PM 38.8522 -97.4181 357° North 169 194 10,100  Level Kansas City Center
07:35PM 38.9008 -97.4231 355° North 169 194 10,100  Level Kansas City Center
07:36PM 38.9492 -97.4275 356° North 167 192 10,100  Level Kansas City Center
07:37PM 38.9975 -97.4331 355° North 166 191 10,100  Level Kansas City Center
07:38PM 39.0447 -97.4383 355° North 164 189 10,100  Level Kansas City Center
07:39PM 39.0894 -97.4414 357° North 165 190 10,100  Level Kansas City Center
07:40PM 39.1367 -97.4447 357° North 164 189 10,100  Level Kansas City Center
07:41PM 39.1842 -97.4503 355° North 162 186 10,100  Level Kansas City Center
07:42PM 39.2314 -97.4550 356° North 163 188 10,100  Level Kansas City Center
07:43PM 39.2781 -97.4589 356° North 162 186 10,100  Level Kansas City Center
07:44PM 39.3247 -97.4642 355° North 161 185 10,100  Level Kansas City Center
07:45PM 39.3719 -97.4675 357° North 162 186 10,100  Level Kansas City Center
07:46PM 39.4147 -97.4714 356° North 160 184 10,100  Level Kansas City Center
07:47PM 39.4608 -97.4758 356° North 160 184 10,100  Level Kansas City Center
07:48PM 39.5075 -97.4819 354° North 159 183 10,100  Level Kansas City Center
07:49PM 39.5539 -97.4844 358° North 160 184 10,100  Level Kansas City Center
07:50PM 39.5986 -97.4911 353° North 156 180 10,100  Level Kansas City Center
07:51PM 39.6447 -97.4947 357° North 158 182 10,100  Level Kansas City Center
07:52PM 39.6908 -97.4992 356° North 159 183 10,100  Level Kansas City Center
07:53PM 39.7333 -97.5050 354° North 159 183 10,100  Level Kansas City Center
07:54PM 39.7792 -97.5097 355° North 155 178 10,100 -60 Level Kansas City Center
07:55PM 39.8211 -97.5158 354° North 157 181 10,000 -300 Descending Kansas City Center
07:56PM 39.8719 -97.5169 359° North 165 190 9,500 -480 Descending Minneapolis Center
07:57PM 39.9189 -97.5147 North 169 194 9,100 -420 Descending Minneapolis Center
07:58PM 39.9661 -97.5072 North 170 196 8,700 -360 Descending Minneapolis Center
07:59PM 40.0225 -97.5056 North 169 194 8,400 -300 Descending Minneapolis Center
08:00PM 40.0675 -97.5025 North 165 190 8,100 -300 Descending Minneapolis Center
08:01PM 40.1128 -97.5008 North 163 188 7,800 -300 Descending Minneapolis Center
08:02PM 40.1603 -97.4956 North 168 193 7,600 -240 Descending Minneapolis Center
08:04PM 40.2064 -97.4897 North 167 192 7,400 -300 Descending Minneapolis Center
08:05PM 40.2531 -97.4894 360° North 168 193 7,100 -240 Descending Minneapolis Center
08:06PM 40.2989 -97.4839 North 166 191 7,000 -60 Descending Minneapolis Center
08:07PM 40.3528 -97.4797 North 163 188 7,000  Level Minneapolis Center
08:08PM 40.3878 -97.4783 North 160 184 7,000 -240 Level Minneapolis Center
08:09PM 40.4447 -97.4744 North 167 192 6,600 -360 Descending Minneapolis Center
08:10PM 40.4925 -97.4725 North 171 197 6,300 -420 Descending Minneapolis Center
08:11PM 40.5422 -97.4714 North 175 201 5,800 -540 Descending Minneapolis Center
08:12PM 40.5853 -97.4892 343° North 166 191 5,300 -540 Descending Minneapolis Center
08:13PM 40.6292 -97.5042 345° North 165 190 4,800 -540 Descending Minneapolis Center